Time;durP1;ratioP1;P1;durP2;ratioP2;P2;SDS_P1;SDS_P2;PMS_P1;PMS_P2;Temp;Humidity;BMP_temperature;BMP_pressure;BME280_temperature;BME280_humidity;BME280_pressure;Samples;Min_cycle;Max_cycle;Signal;HPM_P1;HPM_P2
2021/11/09 00:00:32;;;;;;;0.50;0.50;;;18.80;63.90;;;;;;5087085;28;20067;-37
2021/11/09 00:02:58;;;;;;;0.52;0.40;;;18.80;63.60;;;;;;5085032;28;20028;-38
2021/11/09 00:05:28;;;;;;;0.50;0.50;;;18.80;63.50;;;;;;5085294;28;20017;-37
2021/11/09 00:08:10;;;;;;;0.60;0.40;;;18.80;63.40;;;;;;5093793;28;20043;-37
2021/11/09 00:10:36;;;;;;;0.43;0.40;;;18.80;63.40;;;;;;5105411;28;20032;-37
2021/11/09 00:13:03;;;;;;;1.30;0.50;;;18.80;63.40;;;;;;5105086;28;20039;-37
2021/11/09 00:15:30;;;;;;;0.40;0.40;;;18.70;63.30;;;;;;5105151;28;20158;-38
2021/11/09 00:17:57;;;;;;;;;;;18.70;63.40;;;;;;5105401;28;20036;-38
2021/11/09 00:20:25;;;;;;;2.05;0.55;;;18.70;63.10;;;;;;5105284;28;19947;-37
2021/11/09 00:22:51;;;;;;;0.60;0.32;;;18.70;63.40;;;;;;5103486;28;20024;-38
2021/11/09 00:25:18;;;;;;;0.60;0.45;;;18.70;63.30;;;;;;5104892;28;20031;-37
2021/11/09 00:27:44;;;;;;;0.50;0.43;;;18.70;63.30;;;;;;5104919;28;20899;-37
2021/11/09 00:30:11;;;;;;;0.50;0.40;;;18.70;63.40;;;;;;5104706;28;20035;-38
2021/11/09 00:32:43;;;;;;;0.40;0.30;;;18.70;63.50;;;;;;5104850;28;20034;-38
2021/11/09 00:35:11;;;;;;;1.48;0.50;;;18.60;63.40;;;;;;5104611;28;20115;-37
2021/11/09 00:37:37;;;;;;;1.13;0.40;;;18.60;63.40;;;;;;5104701;28;20028;-37
2021/11/09 00:40:04;;;;;;;0.33;0.30;;;18.60;63.30;;;;;;5103447;28;20077;-37
2021/11/09 00:42:30;;;;;;;0.47;0.32;;;18.60;63.30;;;;;;5104717;28;20032;-37
2021/11/09 00:44:56;;;;;;;0.60;0.40;;;18.60;63.30;;;;;;5104338;28;20028;-37
2021/11/09 00:47:23;;;;;;;0.22;0.22;;;18.60;63.30;;;;;;5104361;28;20036;-37
2021/11/09 00:49:49;;;;;;;0.63;0.50;;;18.50;63.20;;;;;;5104533;28;20030;-37
2021/11/09 00:52:17;;;;;;;0.93;0.50;;;18.50;63.20;;;;;;5103275;28;20028;-38
2021/11/09 00:54:43;;;;;;;0.40;0.35;;;18.50;63.30;;;;;;5104214;28;20036;-38
2021/11/09 00:57:09;;;;;;;0.88;0.35;;;18.50;63.30;;;;;;5104620;28;20047;-37
2021/11/09 00:59:35;;;;;;;0.60;0.43;;;18.40;63.30;;;;;;5104350;28;20032;-37
2021/11/09 01:02:01;;;;;;;0.93;0.32;;;18.40;63.30;;;;;;5101917;28;20020;-37
2021/11/09 01:04:29;;;;;;;0.50;0.50;;;18.40;63.40;;;;;;5104195;28;20060;-37
2021/11/09 01:06:55;;;;;;;0.82;0.50;;;18.40;63.30;;;;;;5103961;28;20035;-37
2021/11/09 01:09:22;;;;;;;0.73;0.50;;;18.40;63.40;;;;;;5104141;28;20082;-38
2021/11/09 01:11:52;;;;;;;0.98;0.40;;;18.40;63.40;;;;;;5104129;28;20031;-38
2021/11/09 01:14:19;;;;;;;1.00;0.45;;;18.40;63.50;;;;;;5103866;28;20541;-37
2021/11/09 01:16:45;;;;;;;0.60;0.47;;;18.30;63.40;;;;;;5103676;28;20067;-37
2021/11/09 01:19:13;;;;;;;0.95;0.55;;;18.30;63.40;;;;;;5104085;28;20726;-37
2021/11/09 01:21:39;;;;;;;;;;;18.30;63.50;;;;;;5103866;28;20034;-38
2021/11/09 01:24:05;;;;;;;0.82;0.40;;;18.30;63.50;;;;;;5103777;28;20023;-37
2021/11/09 01:26:31;;;;;;;0.50;0.40;;;18.30;63.50;;;;;;5103758;28;20115;-38
2021/11/09 01:28:59;;;;;;;0.73;0.47;;;18.20;63.50;;;;;;5103719;28;20096;-38
2021/11/09 01:31:25;;;;;;;0.63;0.43;;;18.20;63.50;;;;;;5103414;28;20024;-38
2021/11/09 01:33:53;;;;;;;1.40;0.60;;;18.20;64.40;;;;;;5103396;28;20028;-38
2021/11/09 01:36:19;;;;;;;;;;;18.20;63.60;;;;;;5104206;28;20032;-38
2021/11/09 01:38:45;;;;;;;0.70;0.50;;;18.20;63.60;;;;;;5103348;28;19918;-37
2021/11/09 01:41:12;;;;;;;0.82;0.50;;;18.20;63.70;;;;;;5083000;28;20025;-37
2021/11/09 01:43:39;;;;;;;1.25;0.47;;;18.20;63.70;;;;;;5082855;28;20024;-37
2021/11/09 01:46:05;;;;;;;1.10;0.60;;;18.10;63.70;;;;;;5082884;28;20032;-38
2021/11/09 01:48:32;;;;;;;0.73;0.55;;;18.10;63.60;;;;;;5083415;28;20028;-37
2021/11/09 01:51:00;;;;;;;1.02;0.70;;;18.10;63.70;;;;;;5083101;28;20084;-37
2021/11/09 01:53:27;;;;;;;0.75;0.57;;;18.10;63.80;;;;;;5083011;28;20032;-38
2021/11/09 01:55:53;;;;;;;1.15;0.65;;;18.10;63.70;;;;;;5084844;28;20478;-37
2021/11/09 01:58:19;;;;;;;0.90;0.70;;;18.10;63.80;;;;;;5083808;28;20033;-38
2021/11/09 02:00:49;;;;;;;1.73;0.63;;;18.00;63.80;;;;;;5103116;28;20268;-38
2021/11/09 02:03:17;;;;;;;0.57;0.50;;;18.00;63.80;;;;;;5103020;28;20028;-42
2021/11/09 02:05:43;;;;;;;2.42;0.70;;;18.00;63.90;;;;;;5102679;28;20028;-37
2021/11/09 02:08:10;;;;;;;0.82;0.60;;;17.90;63.80;;;;;;5102915;28;20102;-37
2021/11/09 02:10:37;;;;;;;1.33;0.63;;;17.90;63.80;;;;;;5102983;28;20550;-38
2021/11/09 02:13:04;;;;;;;1.05;0.60;;;17.90;63.90;;;;;;5102811;28;20024;-37
2021/11/09 02:15:30;;;;;;;2.15;0.55;;;17.90;64.00;;;;;;5102451;28;20953;-38
2021/11/09 02:17:57;;;;;;;0.50;0.47;;;17.90;63.90;;;;;;5102985;28;20032;-38
2021/11/09 02:20:26;;;;;;;0.88;0.68;;;17.90;64.10;;;;;;5102648;28;20052;-37
2021/11/09 02:22:52;;;;;;;;;;;17.80;64.00;;;;;;5103353;28;20042;-38
2021/11/09 02:25:20;;;;;;;1.15;0.63;;;17.80;64.00;;;;;;5102680;28;19998;-38
2021/11/09 02:27:46;;;;;;;;;;;17.80;64.10;;;;;;5103112;28;20100;-37
2021/11/09 02:30:14;;;;;;;0.85;0.70;;;17.80;64.10;;;;;;5102170;28;20010;-37
2021/11/09 02:32:41;;;;;;;0.95;0.77;;;17.80;64.20;;;;;;5102786;28;20085;-37
2021/11/09 02:35:08;;;;;;;0.90;0.73;;;17.70;64.10;;;;;;5102441;28;20019;-38
2021/11/09 02:37:34;;;;;;;;;;;17.70;64.20;;;;;;5103000;28;20491;-38
2021/11/09 02:40:00;;;;;;;1.13;0.82;;;17.70;64.20;;;;;;5102759;28;19916;-38
2021/11/09 02:42:32;;;;;;;1.47;0.80;;;17.70;64.20;;;;;;5102521;28;20035;-37
2021/11/09 02:45:11;;;;;;;1.35;0.85;;;17.70;64.20;;;;;;5102280;28;20556;-37
2021/11/09 02:47:52;;;;;;;1.10;0.90;;;17.70;64.30;;;;;;5102407;28;20582;-37
2021/11/09 02:50:21;;;;;;;0.93;0.75;;;17.60;64.40;;;;;;5102605;28;20117;-38
2021/11/09 02:53:04;;;;;;;1.58;0.93;;;17.60;64.40;;;;;;5102411;28;20028;-38
2021/11/09 02:56:17;;;;;;;1.50;0.88;;;17.60;64.50;;;;;;5102248;28;20505;-37
2021/11/09 03:01:12;;;;;;;2.30;1.05;;;17.50;64.50;;;;;;5102271;28;20043;-37
2021/11/09 03:08:41;;;;;;;1.58;0.80;;;17.50;64.70;;;;;;5102187;28;20039;-38
2021/11/09 03:11:08;;;;;;;1.08;0.80;;;17.40;64.60;;;;;;5102339;28;20052;-38
2021/11/09 03:13:36;;;;;;;1.23;0.80;;;17.40;64.70;;;;;;5102248;28;20020;-38
2021/11/09 03:16:08;;;;;;;1.15;1.05;;;17.40;64.70;;;;;;5101775;28;20093;-37
2021/11/09 03:18:42;;;;;;;2.35;1.13;;;17.40;64.70;;;;;;5102049;28;20028;-37
2021/11/09 03:45:35;;;;;;;2.75;1.10;;;17.20;65.10;;;;;;5105333;28;20095;-37
2021/11/09 03:48:07;;;;;;;2.83;1.42;;;17.20;65.30;;;;;;5105307;28;20040;-38
2021/11/09 03:50:35;;;;;;;1.50;1.13;;;17.20;65.30;;;;;;5103992;28;20028;-38
2021/11/09 03:53:09;;;;;;;1.70;1.20;;;17.10;65.30;;;;;;5105783;28;20032;-38
2021/11/09 04:03:28;;;;;;;1.20;1.05;;;17.10;65.40;;;;;;5104627;28;20036;-38
2021/11/09 04:06:01;;;;;;;1.35;1.00;;;17.10;65.40;;;;;;5084635;28;20032;-37
2021/11/09 04:08:45;;;;;;;1.63;1.15;;;17.00;65.40;;;;;;5098541;28;20032;-38
2021/11/09 04:11:21;;;;;;;1.42;1.20;;;17.00;65.40;;;;;;5104622;28;20093;-38
2021/11/09 04:18:54;;;;;;;1.35;1.15;;;17.00;65.60;;;;;;5105309;28;20029;-37
2021/11/09 04:21:44;;;;;;;1.73;1.33;;;16.90;65.60;;;;;;5105077;28;20032;-38
2021/11/09 04:27:15;;;;;;;2.33;1.25;;;16.90;65.60;;;;;;5104407;28;20046;-38
2021/11/09 05:10:19;;;;;;;2.33;1.60;;;16.60;66.00;;;;;;5102952;28;20045;-37
2021/11/09 05:12:45;;;;;;;3.50;1.80;;;16.60;66.00;;;;;;5103890;28;20043;-37
2021/11/09 05:15:12;;;;;;;1.88;1.33;;;16.60;66.00;;;;;;5104067;28;20076;-38
2021/11/09 05:17:38;;;;;;;2.80;1.50;;;16.60;66.10;;;;;;5103544;28;20052;-37
2021/11/09 05:20:04;;;;;;;2.20;1.80;;;16.50;66.00;;;;;;5103908;28;20046;-37
2021/11/09 05:22:30;;;;;;;2.58;1.58;;;16.50;66.80;;;;;;5104048;28;20039;-37
2021/11/09 05:24:57;;;;;;;2.70;1.85;;;16.50;66.10;;;;;;5103243;28;20047;-37
2021/11/09 05:27:26;;;;;;;2.80;1.63;;;16.50;66.20;;;;;;5103530;28;20087;-38
2021/11/09 05:29:53;;;;;;;4.45;1.77;;;16.50;66.20;;;;;;5103628;28;20023;-37
2021/11/09 05:32:19;;;;;;;2.10;1.60;;;16.40;66.20;;;;;;5103713;28;20039;-37
2021/11/09 05:34:45;;;;;;;2.70;1.63;;;16.40;66.30;;;;;;5102341;28;20020;-37
2021/11/09 05:37:14;;;;;;;1.98;1.63;;;16.50;66.60;;;;;;5101711;28;20028;-37
2021/11/09 05:42:09;;;;;;;2.72;1.73;;;16.50;66.70;;;;;;5103700;28;20038;-37
2021/11/09 05:44:35;;;;;;;2.42;1.83;;;16.50;66.70;;;;;;5103453;28;20031;-37
2021/11/09 05:47:02;;;;;;;2.10;1.70;;;16.50;66.70;;;;;;5103321;28;20804;-37
2021/11/09 05:49:28;;;;;;;2.88;2.10;;;16.40;66.60;;;;;;5103086;28;20020;-37
2021/11/09 05:51:54;;;;;;;2.70;1.75;;;16.40;66.60;;;;;;5103535;28;20032;-38
2021/11/09 05:54:20;;;;;;;2.47;1.70;;;16.40;66.60;;;;;;5103530;28;20496;-37
2021/11/09 05:56:47;;;;;;;1.88;1.40;;;16.40;66.60;;;;;;5101438;28;20597;-37
2021/11/09 05:59:13;;;;;;;1.83;1.40;;;16.50;67.00;;;;;;5101378;28;20035;-37
2021/11/09 06:01:39;;;;;;;2.13;1.60;;;16.50;67.10;;;;;;5103487;28;20389;-37
2021/11/09 06:04:05;;;;;;;3.58;1.77;;;16.60;67.10;;;;;;5103056;28;20062;-38
2021/11/09 06:06:31;;;;;;;1.75;1.40;;;16.60;67.00;;;;;;5102997;28;20089;-37
2021/11/09 06:08:57;;;;;;;2.47;1.98;;;16.50;67.00;;;;;;5102692;28;20024;-37
2021/11/09 06:11:23;;;;;;;1.85;1.38;;;16.50;67.00;;;;;;5102922;28;20062;-37
2021/11/09 06:13:50;;;;;;;2.85;1.42;;;16.50;67.00;;;;;;5101759;28;20032;-37
2021/11/09 06:16:16;;;;;;;2.00;1.65;;;16.50;67.10;;;;;;5102849;28;20055;-37
2021/11/09 06:18:42;;;;;;;2.72;1.70;;;16.40;67.00;;;;;;5102975;28;20081;-38
2021/11/09 06:21:09;;;;;;;3.47;1.98;;;16.40;67.10;;;;;;5101757;28;20456;-37
2021/11/09 06:23:35;;;;;;;2.35;1.67;;;16.40;67.40;;;;;;5102983;28;20060;-37
2021/11/09 06:26:01;;;;;;;2.20;1.45;;;16.60;67.50;;;;;;5102522;28;20032;-37
2021/11/09 06:28:28;;;;;;;3.40;1.50;;;16.50;68.00;;;;;;5102785;28;20032;-37
2021/11/09 06:30:54;;;;;;;2.60;1.50;;;16.50;67.20;;;;;;5101627;28;20111;-37
2021/11/09 06:33:21;;;;;;;1.95;1.50;;;16.50;67.20;;;;;;5102824;28;20054;-37
2021/11/09 06:35:47;;;;;;;2.63;1.87;;;16.50;67.30;;;;;;5102932;28;20028;-37
2021/11/09 06:38:13;;;;;;;2.08;1.60;;;16.50;67.20;;;;;;5100881;28;20028;-38
2021/11/09 06:40:39;;;;;;;2.28;1.58;;;16.40;67.10;;;;;;5102683;28;20035;-37
2021/11/09 06:43:06;;;;;;;2.70;1.70;;;16.40;67.10;;;;;;5103013;28;20039;-37
2021/11/09 06:45:33;;;;;;;1.80;1.40;;;16.40;67.40;;;;;;5101395;28;20032;-37
2021/11/09 06:47:59;;;;;;;2.42;1.55;;;16.50;67.70;;;;;;5101026;28;20472;-37
2021/11/09 06:50:26;;;;;;;2.20;1.48;;;16.60;67.60;;;;;;5102237;28;20017;-38
2021/11/09 06:52:52;;;;;;;2.45;1.38;;;16.60;67.40;;;;;;5102740;28;20027;-38
2021/11/09 06:55:18;;;;;;;2.30;1.60;;;16.50;67.30;;;;;;5102753;28;20106;-38
2021/11/09 06:57:45;;;;;;;2.47;1.48;;;16.50;67.30;;;;;;5102756;28;20036;-37
2021/11/09 07:00:14;;;;;;;3.33;1.58;;;16.50;67.30;;;;;;5102512;28;20031;-37
2021/11/09 07:02:40;;;;;;;2.78;1.42;;;16.40;67.30;;;;;;5106654;28;20036;-37
2021/11/09 07:05:07;;;;;;;3.13;2.00;;;16.40;67.30;;;;;;5105309;28;20054;-37
2021/11/09 07:07:33;;;;;;;2.42;1.60;;;16.40;67.30;;;;;;5105034;28;20032;-37
2021/11/09 07:09:59;;;;;;;2.25;1.55;;;16.40;67.40;;;;;;5106462;28;20642;-37
2021/11/09 07:12:25;;;;;;;2.22;1.45;;;16.50;67.80;;;;;;5106618;28;20024;-37
2021/11/09 07:14:52;;;;;;;2.90;1.77;;;16.60;67.70;;;;;;5106540;28;20024;-37
2021/11/09 07:17:19;;;;;;;2.25;1.67;;;16.60;67.40;;;;;;5105124;28;20052;-37
2021/11/09 07:19:50;;;;;;;2.30;1.60;;;16.60;67.30;;;;;;5106378;28;20032;-38
2021/11/09 07:22:16;;;;;;;2.60;1.50;;;16.50;67.40;;;;;;5106375;28;20047;-37
2021/11/09 07:24:43;;;;;;;2.65;1.58;;;16.50;67.40;;;;;;5106458;28;20568;-37
2021/11/09 07:27:09;;;;;;;2.60;1.70;;;16.50;67.40;;;;;;5106313;28;20114;-37
2021/11/09 07:29:35;;;;;;;2.13;1.52;;;16.40;67.30;;;;;;5105910;28;20020;-37
2021/11/09 07:32:01;;;;;;;2.25;1.55;;;16.40;67.30;;;;;;5106292;28;20054;-38
2021/11/09 07:34:27;;;;;;;2.47;1.60;;;16.50;67.70;;;;;;5106094;28;20024;-37
2021/11/09 07:36:53;;;;;;;2.65;1.58;;;16.60;67.80;;;;;;5105941;28;20058;-37
2021/11/09 07:39:20;;;;;;;2.22;1.67;;;16.60;67.60;;;;;;5105496;28;20080;-37
2021/11/09 07:41:47;;;;;;;2.08;1.58;;;16.60;67.40;;;;;;5106170;28;20047;-37
2021/11/09 07:44:14;;;;;;;2.08;1.30;;;16.60;67.40;;;;;;5106168;28;20053;-38
2021/11/09 07:46:40;;;;;;;2.38;1.38;;;16.50;67.40;;;;;;5106096;28;20646;-37
2021/11/09 07:49:06;;;;;;;2.72;1.73;;;16.50;67.40;;;;;;5105734;28;20032;-37
2021/11/09 07:51:33;;;;;;;3.00;1.73;;;16.50;67.40;;;;;;5105837;28;20116;-38
2021/11/09 07:53:59;;;;;;;1.75;1.45;;;16.40;67.30;;;;;;5105989;28;20028;-37
2021/11/09 07:56:31;;;;;;;1.77;1.23;;;16.40;67.30;;;;;;5105850;28;20058;-38
2021/11/09 08:02:01;;;;;;;3.25;1.73;;;16.60;67.80;;;;;;5042667;28;20097;-37
2021/11/09 08:04:43;;;;;;;2.47;1.45;;;16.60;67.50;;;;;;5042375;28;20037;-37
2021/11/09 08:09:35;;;;;;;1.90;1.35;;;16.50;67.30;;;;;;5047925;28;20049;-37
2021/11/09 08:12:03;;;;;;;3.08;1.83;;;16.50;67.40;;;;;;5062319;28;20067;-37
2021/11/09 08:14:29;;;;;;;2.35;1.35;;;16.50;67.40;;;;;;5045946;28;20091;-37
2021/11/09 08:16:55;;;;;;;3.33;1.83;;;16.40;67.30;;;;;;5062384;28;20103;-37
2021/11/09 08:19:21;;;;;;;4.50;1.90;;;16.40;67.30;;;;;;5062070;28;20079;-38
2021/11/09 08:21:48;;;;;;;2.42;1.65;;;16.50;67.60;;;;;;5044300;28;20060;-37
2021/11/09 08:24:15;;;;;;;2.13;1.45;;;16.60;67.80;;;;;;5042477;28;20033;-37
2021/11/09 08:26:42;;;;;;;2.35;1.48;;;16.60;67.60;;;;;;5042218;28;20029;-38
2021/11/09 08:29:08;;;;;;;2.38;1.58;;;16.60;67.30;;;;;;5042406;28;20021;-37
2021/11/09 08:31:35;;;;;;;3.42;1.67;;;16.60;67.30;;;;;;5041886;28;20033;-37
2021/11/09 08:34:02;;;;;;;2.60;1.38;;;16.60;67.30;;;;;;5042102;28;20119;-37
2021/11/09 08:36:29;;;;;;;3.25;1.80;;;16.50;67.40;;;;;;5042290;28;20072;-38
2021/11/09 08:39:00;;;;;;;2.30;1.58;;;16.50;67.30;;;;;;5068212;28;20048;-38
2021/11/09 08:41:27;;;;;;;2.08;1.63;;;16.50;67.30;;;;;;5084446;28;20055;-38
2021/11/09 08:44:01;;;;;;;2.03;1.50;;;16.40;67.30;;;;;;5084814;28;20082;-37
2021/11/09 08:46:31;;;;;;;2.53;1.55;;;16.50;67.60;;;;;;5084643;28;20044;-37
2021/11/09 08:48:57;;;;;;;3.00;1.85;;;16.60;67.60;;;;;;5084652;28;20121;-37
2021/11/09 08:51:23;;;;;;;2.88;1.60;;;16.60;67.40;;;;;;5099150;28;20028;-38
2021/11/09 08:53:56;;;;;;;1.93;1.50;;;16.60;67.40;;;;;;5104924;28;20029;-37
2021/11/09 08:56:32;;;;;;;2.40;1.60;;;16.50;67.40;;;;;;5104636;28;20051;-37
2021/11/09 09:04:18;;;;;;;3.08;1.70;;;16.50;67.30;;;;;;5104564;28;20016;-37
2021/11/09 09:06:49;;;;;;;2.28;1.50;;;16.50;67.60;;;;;;5104281;28;20028;-37
2021/11/09 09:09:16;;;;;;;2.95;1.65;;;16.60;67.70;;;;;;5104257;28;20039;-37
2021/11/09 09:11:43;;;;;;;2.42;1.50;;;16.60;67.50;;;;;;5104370;28;20024;-37
2021/11/09 09:14:09;;;;;;;3.40;1.95;;;16.60;67.30;;;;;;5102831;28;20040;-37
2021/11/09 09:16:36;;;;;;;2.63;1.80;;;16.60;67.30;;;;;;5104194;28;20055;-37
2021/11/09 09:19:04;;;;;;;3.28;1.88;;;16.50;67.30;;;;;;5104119;28;20143;-37
2021/11/09 09:24:03;;;;;;;2.25;1.70;;;16.40;67.30;;;;;;5103552;28;20035;-37
2021/11/09 09:26:42;;;;;;;2.47;1.58;;;16.40;67.30;;;;;;5103525;28;20057;-38
2021/11/09 09:56:21;;;;;;;3.55;1.73;;;16.60;67.30;;;;;;5103162;28;20131;-38
2021/11/09 09:58:47;;;;;;;2.50;1.67;;;16.60;67.20;;;;;;5103327;28;20054;-37
2021/11/09 10:01:14;;;;;;;2.72;1.90;;;16.60;67.20;;;;;;5103045;28;20054;-37
2021/11/09 10:03:41;;;;;;;2.38;1.70;;;16.50;67.30;;;;;;5103278;28;20108;-38
2021/11/09 10:06:08;;;;;;;3.08;1.92;;;16.50;67.30;;;;;;5103339;28;20020;-38
2021/11/09 10:08:49;;;;;;;3.72;1.60;;;16.50;67.30;;;;;;5102993;28;20028;-37
2021/11/09 10:11:32;;;;;;;2.17;1.50;;;16.50;67.50;;;;;;5102982;28;20031;-38
2021/11/09 10:13:59;;;;;;;1.88;1.27;;;16.60;67.70;;;;;;5103238;28;20024;-37
2021/11/09 10:16:25;;;;;;;2.42;1.67;;;16.60;67.60;;;;;;5103082;28;20052;-37
2021/11/09 10:18:51;;;;;;;2.92;1.60;;;16.60;67.30;;;;;;5103095;28;20107;-38
2021/11/09 10:21:17;;;;;;;2.30;1.80;;;16.60;67.30;;;;;;5102819;28;20032;-37
2021/11/09 10:23:44;;;;;;;2.20;1.77;;;16.60;67.20;;;;;;5103151;28;20378;-37
2021/11/09 10:26:15;;;;;;;2.10;1.48;;;16.50;67.30;;;;;;5102809;28;20047;-37
2021/11/09 10:28:42;;;;;;;2.22;1.63;;;16.50;67.30;;;;;;5103038;28;20092;-37
2021/11/09 10:31:09;;;;;;;3.23;1.80;;;16.50;67.40;;;;;;5102834;28;20024;-37
2021/11/09 10:33:40;;;;;;;2.05;1.38;;;16.40;67.20;;;;;;5102960;28;20553;-37
2021/11/09 10:36:29;;;;;;;3.15;1.60;;;16.50;67.50;;;;;;5102706;28;20039;-37
2021/11/09 10:39:16;;;;;;;2.45;1.67;;;16.60;67.60;;;;;;5102546;28;20162;-38
2021/11/09 10:42:02;;;;;;;2.80;1.83;;;16.60;67.40;;;;;;5101265;28;20038;-37
2021/11/09 10:44:32;;;;;;;2.83;1.90;;;16.60;67.20;;;;;;5102623;28;20028;-38
2021/11/09 10:47:14;;;;;;;3.50;1.92;;;16.50;67.20;;;;;;5102886;28;20127;-37
2021/11/09 10:49:55;;;;;;;3.53;1.90;;;16.50;67.20;;;;;;5101350;28;20039;-38
2021/11/09 10:52:27;;;;;;;2.72;1.55;;;16.50;67.30;;;;;;5102376;28;20023;-37
2021/11/09 10:55:34;;;;;;;2.50;1.50;;;16.50;67.40;;;;;;5101289;28;20083;-37
2021/11/09 11:03:31;;;;;;;2.78;1.50;;;16.60;67.20;;;;;;5082082;28;20028;-38
2021/11/09 11:06:19;;;;;;;2.00;1.33;;;16.60;67.10;;;;;;5082188;28;20029;-37
2021/11/09 11:08:50;;;;;;;2.17;1.60;;;16.50;67.20;;;;;;5096358;28;20040;-37
2021/11/09 11:11:20;;;;;;;2.72;1.80;;;16.50;67.20;;;;;;5102488;28;20032;-37
2021/11/09 11:13:47;;;;;;;3.00;1.95;;;16.50;67.30;;;;;;5101842;28;20027;-37
2021/11/09 11:16:15;;;;;;;2.28;1.45;;;16.50;67.30;;;;;;5102405;28;20036;-38
2021/11/09 11:18:46;;;;;;;3.65;1.85;;;16.50;67.60;;;;;;5102433;28;20032;-37
2021/11/09 11:21:14;;;;;;;2.30;1.35;;;16.60;67.50;;;;;;5101988;28;20044;-38
2021/11/09 11:23:44;;;;;;;2.60;1.60;;;16.60;67.20;;;;;;5102253;28;20020;-37
2021/11/09 11:26:10;;;;;;;2.35;1.83;;;16.60;67.10;;;;;;5101615;28;20028;-37
2021/11/09 11:28:38;;;;;;;2.58;1.70;;;16.50;67.20;;;;;;5102187;28;20035;-37
2021/11/09 11:31:05;;;;;;;2.95;1.70;;;16.50;67.20;;;;;;5101781;28;20021;-37
2021/11/09 11:33:31;;;;;;;3.63;1.90;;;16.40;67.20;;;;;;5102092;28;20036;-37
2021/11/09 11:35:57;;;;;;;2.92;1.60;;;16.50;67.40;;;;;;5100803;28;20063;-37
2021/11/09 11:38:24;;;;;;;2.95;1.65;;;16.60;67.60;;;;;;5101999;28;20105;-37
2021/11/09 11:41:00;;;;;;;2.88;1.70;;;16.60;67.30;;;;;;5101726;28;20077;-38
2021/11/09 11:43:48;;;;;;;2.15;1.40;;;16.60;67.20;;;;;;5101660;28;20028;-38
2021/11/09 11:46:16;;;;;;;3.10;1.90;;;16.50;67.10;;;;;;5103703;28;20769;-37
2021/11/09 11:49:00;;;;;;;2.53;1.70;;;16.50;67.20;;;;;;5105953;28;20055;-37
2021/11/09 11:51:27;;;;;;;2.25;1.67;;;16.50;67.20;;;;;;5105399;28;20024;-37
2021/11/09 11:53:56;;;;;;;2.70;1.70;;;16.40;67.30;;;;;;5104309;28;20028;-37
2021/11/09 11:56:43;;;;;;;2.58;1.50;;;16.50;67.60;;;;;;5093927;28;20098;-38
2021/11/09 11:59:24;;;;;;;3.17;1.42;;;16.60;67.60;;;;;;5084291;28;20044;-37
2021/11/09 12:01:52;;;;;;;3.17;1.80;;;16.70;67.30;;;;;;5085096;28;20042;-37
2021/11/09 12:04:51;;;;;;;1.48;1.35;;;16.60;67.10;;;;;;5085115;28;20028;-37
2021/11/09 12:07:19;;;;;;;2.53;1.65;;;16.60;67.10;;;;;;5091292;28;20040;-37
2021/11/09 12:09:47;;;;;;;3.20;1.73;;;16.50;67.10;;;;;;5103915;28;20087;-38
2021/11/09 12:12:20;;;;;;;2.13;1.77;;;16.50;67.20;;;;;;5105056;28;20031;-38
2021/11/09 12:14:57;;;;;;;2.50;1.80;;;16.40;67.10;;;;;;5105229;28;20020;-37
2021/11/09 12:17:33;;;;;;;;;;;16.50;67.40;;;;;;5105538;28;20048;-38
2021/11/09 12:20:05;;;;;;;2.40;1.55;;;16.60;67.60;;;;;;5105065;28;19921;-38
2021/11/09 12:22:51;;;;;;;2.05;1.38;;;16.60;67.30;;;;;;5104985;28;20039;-37
2021/11/09 12:25:36;;;;;;;3.42;1.55;;;16.60;67.20;;;;;;5104931;28;20028;-38
2021/11/09 12:28:10;;;;;;;2.08;1.55;;;16.60;67.20;;;;;;5103580;28;20500;-37
2021/11/09 12:30:41;;;;;;;3.53;2.25;;;16.50;67.20;;;;;;5104752;28;20024;-38
2021/11/09 12:33:17;;;;;;;2.38;1.70;;;16.50;67.20;;;;;;5104910;28;20040;-38
2021/11/09 12:35:47;;;;;;;2.33;1.60;;;16.40;67.20;;;;;;5104818;28;20512;-38
2021/11/09 12:38:33;;;;;;;2.35;1.50;;;16.50;67.50;;;;;;5104518;28;20088;-38
2021/11/09 12:41:01;;;;;;;3.00;1.50;;;16.60;67.50;;;;;;5104500;28;20773;-37
2021/11/09 12:43:31;;;;;;;2.35;1.55;;;16.70;67.30;;;;;;5103224;28;20032;-37
2021/11/09 12:46:11;;;;;;;2.78;1.48;;;16.60;67.10;;;;;;5104793;28;20031;-37
2021/11/09 12:48:39;;;;;;;1.83;1.33;;;16.60;67.10;;;;;;5104255;28;20063;-38
2021/11/09 12:51:07;;;;;;;2.08;1.52;;;16.50;67.10;;;;;;5104286;28;20091;-37
2021/11/09 12:53:46;;;;;;;2.90;1.80;;;16.50;67.10;;;;;;5104565;28;20077;-38
2021/11/09 12:56:30;;;;;;;2.22;1.50;;;16.40;67.10;;;;;;5103652;28;20039;-37
2021/11/09 12:59:03;;;;;;;2.90;1.50;;;16.50;67.30;;;;;;5103468;28;20062;-37
2021/11/09 13:07:02;;;;;;;2.22;1.50;;;16.60;67.10;;;;;;5104190;28;20663;-37
2021/11/09 13:09:35;;;;;;;2.78;1.50;;;16.60;67.10;;;;;;5103742;28;20366;-38
2021/11/09 13:12:20;;;;;;;2.75;1.52;;;16.50;67.10;;;;;;5103417;28;20048;-38
2021/11/09 13:14:49;;;;;;;2.92;1.90;;;16.50;67.20;;;;;;5103963;28;20023;-38
2021/11/09 13:17:31;;;;;;;2.50;1.70;;;16.40;67.10;;;;;;5103622;28;20108;-37
2021/11/09 13:20:08;;;;;;;2.58;1.65;;;16.50;67.40;;;;;;5103772;28;20035;-37
2021/11/09 13:22:34;;;;;;;1.88;1.58;;;16.60;67.40;;;;;;5103469;28;20054;-37
2021/11/09 13:25:01;;;;;;;2.33;1.70;;;16.60;67.20;;;;;;5103888;28;20032;-37
2021/11/09 13:27:42;;;;;;;2.05;1.70;;;16.60;67.10;;;;;;5103455;28;20040;-38
2021/11/09 13:30:14;;;;;;;2.88;1.65;;;16.60;67.10;;;;;;5103646;28;20480;-37
2021/11/09 13:32:44;;;;;;;2.03;1.60;;;16.50;67.10;;;;;;5103275;28;20036;-37
2021/11/09 13:35:33;;;;;;;2.55;1.75;;;16.50;67.20;;;;;;5103570;28;20044;-37
2021/11/09 13:38:08;;;;;;;2.13;1.38;;;16.50;67.20;;;;;;5095026;28;20170;-37
2021/11/09 13:40:35;;;;;;;1.92;1.38;;;16.60;67.50;;;;;;5103425;28;20031;-37
2021/11/09 13:43:04;;;;;;;2.42;1.60;;;16.60;67.20;;;;;;5103072;28;20023;-37
2021/11/09 13:45:30;;;;;;;2.40;1.65;;;16.70;67.20;;;;;;5103281;28;20080;-38
2021/11/09 13:47:57;;;;;;;2.03;1.60;;;16.60;67.00;;;;;;5103254;28;20032;-37
2021/11/09 13:50:26;;;;;;;2.75;1.63;;;16.60;67.10;;;;;;5101706;28;20028;-37
2021/11/09 13:52:52;;;;;;;2.58;1.83;;;16.50;67.00;;;;;;5103083;28;20039;-37
2021/11/09 13:55:20;;;;;;;2.08;1.38;;;16.50;67.10;;;;;;5103268;28;20044;-38
2021/11/09 13:57:47;;;;;;;2.70;1.70;;;16.50;67.30;;;;;;5101583;28;20028;-38
2021/11/09 14:00:25;;;;;;;2.38;1.73;;;16.60;67.50;;;;;;5103279;28;20027;-39
2021/11/09 14:08:44;;;;;;;2.45;1.80;;;16.60;67.10;;;;;;5102350;28;20097;-38
2021/11/09 14:11:37;;;;;;;2.38;1.48;;;16.60;67.10;;;;;;5101625;28;20032;-37
2021/11/09 14:16:52;;;;;;;2.42;1.50;;;16.50;67.10;;;;;;5102671;28;20115;-37
2021/11/09 14:19:29;;;;;;;1.88;1.33;;;16.60;67.40;;;;;;5102681;28;20032;-37
2021/11/09 14:21:56;;;;;;;2.70;1.65;;;16.70;67.50;;;;;;5102814;28;20050;-38
2021/11/09 14:24:25;;;;;;;3.00;1.67;;;16.70;67.30;;;;;;5102938;28;20025;-37
2021/11/09 14:27:10;;;;;;;2.00;1.48;;;16.70;67.20;;;;;;5102440;28;20115;-38
2021/11/09 14:29:38;;;;;;;2.53;1.60;;;16.60;67.10;;;;;;5102690;28;20036;-38
2021/11/09 14:32:18;;;;;;;2.35;1.50;;;16.60;67.10;;;;;;5102861;28;20097;-37
2021/11/09 14:35:05;;;;;;;2.30;1.60;;;16.60;67.20;;;;;;5102720;28;20031;-38
2021/11/09 14:37:35;;;;;;;2.28;1.42;;;16.50;67.10;;;;;;5102304;28;20087;-38
2021/11/09 14:40:05;;;;;;;1.63;1.40;;;16.50;67.10;;;;;;5102556;28;20114;-39
2021/11/09 14:45:27;;;;;;;2.60;1.70;;;16.70;67.50;;;;;;5102591;28;20038;-38
2021/11/09 14:48:04;;;;;;;2.35;1.60;;;16.70;67.30;;;;;;5100989;28;20040;-38
2021/11/09 14:53:30;;;;;;;3.90;1.50;;;16.60;67.10;;;;;;5085884;28;20130;-38
2021/11/09 14:56:03;;;;;;;2.03;1.35;;;16.60;67.20;;;;;;5102278;28;20095;-38
2021/11/09 14:58:30;;;;;;;2.00;1.60;;;16.60;67.20;;;;;;5102501;28;20085;-38
2021/11/09 15:01:05;;;;;;;2.20;1.30;;;16.50;67.00;;;;;;5102536;28;20166;-38
2021/11/09 15:03:36;;;;;;;2.70;1.40;;;16.50;67.00;;;;;;5102174;28;20032;-38
2021/11/09 15:06:10;;;;;;;2.22;1.40;;;16.60;67.30;;;;;;5102321;28;20039;-37
2021/11/09 15:11:26;;;;;;;2.40;1.40;;;16.70;67.40;;;;;;5102199;28;20020;-37
2021/11/09 15:30:24;;;;;;;1.77;1.42;;;16.60;67.00;;;;;;5106166;28;20032;-37
2021/11/09 15:32:54;;;;;;;1.92;1.58;;;16.60;67.00;;;;;;5104712;28;20028;-37
2021/11/09 15:35:38;;;;;;;2.53;1.73;;;16.60;67.10;;;;;;5105890;28;20032;-37
2021/11/09 15:38:04;;;;;;;2.88;1.63;;;16.60;67.10;;;;;;5105581;28;20043;-37
2021/11/09 15:40:30;;;;;;;1.90;1.48;;;16.70;67.50;;;;;;5105340;28;20024;-37
2021/11/09 15:42:57;;;;;;;1.50;1.23;;;16.80;67.60;;;;;;5105762;28;20094;-37
2021/11/09 15:45:23;;;;;;;1.95;1.48;;;16.80;67.50;;;;;;5105510;28;20111;-37
2021/11/09 15:47:49;;;;;;;1.67;1.25;;;16.80;67.40;;;;;;5105509;28;20043;-37
2021/11/09 15:50:15;;;;;;;2.50;1.63;;;16.80;67.40;;;;;;5105692;28;20059;-37
2021/11/09 15:52:41;;;;;;;2.40;1.48;;;16.80;67.40;;;;;;5105490;28;20056;-37
2021/11/09 15:55:08;;;;;;;2.55;1.55;;;16.80;67.40;;;;;;5105202;28;20085;-37
2021/11/09 15:57:35;;;;;;;2.55;1.40;;;16.80;67.40;;;;;;5105069;28;20031;-37